sensor_id;sensor_type;location;lat;lon;timestamp;pressure;altitude;pressure_sealevel;temperature;humidity
46127;BME280;31859;55.030;-1.550;2022-07-06T00:02:04;101500.29;;;12.63;100.00
46127;BME280;31859;55.030;-1.550;2022-07-06T00:04:31;101505.50;;;12.12;100.00
46127;BME280;31859;55.030;-1.550;2022-07-06T00:06:58;101508.92;;;11.84;100.00
46127;BME280;31859;55.030;-1.550;2022-07-06T00:09:25;101500.53;;;11.67;100.00
46127;BME280;31859;55.030;-1.550;2022-07-06T00:11:51;101501.83;;;12.12;100.00
46127;BME280;31859;55.030;-1.550;2022-07-06T00:14:18;101502.53;;;12.16;100.00
46127;BME280;31859;55.030;-1.550;2022-07-06T00:16:45;101504.17;;;12.59;100.00
46127;BME280;31859;55.030;-1.550;2022-07-06T00:19:12;101499.98;;;12.65;100.00
46127;BME280;31859;55.030;-1.550;2022-07-06T00:21:39;101502.22;;;12.36;100.00
46127;BME280;31859;55.030;-1.550;2022-07-06T00:24:07;101493.37;;;12.05;100.00
46127;BME280;31859;55.030;-1.550;2022-07-06T00:26:35;101492.75;;;12.23;100.00
46127;BME280;31859;55.030;-1.550;2022-07-06T00:29:02;101493.90;;;12.34;100.00
46127;BME280;31859;55.030;-1.550;2022-07-06T00:31:30;101489.66;;;12.38;100.00
46127;BME280;31859;55.030;-1.550;2022-07-06T00:33:57;101490.13;;;12.29;100.00
46127;BME280;31859;55.030;-1.550;2022-07-06T00:36:24;101485.90;;;12.11;100.00
46127;BME280;31859;55.030;-1.550;2022-07-06T00:38:51;101481.46;;;12.28;100.00
46127;BME280;31859;55.030;-1.550;2022-07-06T00:41:18;101482.91;;;12.73;100.00
46127;BME280;31859;55.030;-1.550;2022-07-06T00:43:49;101483.12;;;12.51;100.00
46127;BME280;31859;55.030;-1.550;2022-07-06T00:46:17;101479.05;;;12.68;100.00
46127;BME280;31859;55.030;-1.550;2022-07-06T00:48:45;101481.06;;;12.29;100.00
46127;BME280;31859;55.030;-1.550;2022-07-06T00:51:12;101474.09;;;12.46;100.00
46127;BME280;31859;55.030;-1.550;2022-07-06T00:53:40;101476.08;;;12.88;100.00
46127;BME280;31859;55.030;-1.550;2022-07-06T00:56:09;101474.10;;;12.48;100.00
46127;BME280;31859;55.030;-1.550;2022-07-06T00:58:37;101477.07;;;12.47;100.00
46127;BME280;31859;55.030;-1.550;2022-07-06T01:01:03;101472.83;;;12.69;100.00
46127;BME280;31859;55.030;-1.550;2022-07-06T01:03:31;101473.37;;;12.40;100.00
46127;BME280;31859;55.030;-1.550;2022-07-06T01:05:59;101477.62;;;12.27;100.00
46127;BME280;31859;55.030;-1.550;2022-07-06T01:08:28;101472.58;;;12.32;100.00
46127;BME280;31859;55.030;-1.550;2022-07-06T01:10:55;101470.22;;;11.89;100.00
46127;BME280;31859;55.030;-1.550;2022-07-06T01:13:22;101464.63;;;11.70;100.00
46127;BME280;31859;55.030;-1.550;2022-07-06T01:15:49;101460.07;;;11.46;100.00
46127;BME280;31859;55.030;-1.550;2022-07-06T01:18:16;101463.55;;;11.78;100.00
46127;BME280;31859;55.030;-1.550;2022-07-06T01:20:43;101451.90;;;11.69;100.00
46127;BME280;31859;55.030;-1.550;2022-07-06T01:23:10;101448.90;;;11.69;100.00
46127;BME280;31859;55.030;-1.550;2022-07-06T01:25:37;101446.26;;;11.58;100.00
46127;BME280;31859;55.030;-1.550;2022-07-06T01:28:04;101449.42;;;12.14;100.00
46127;BME280;31859;55.030;-1.550;2022-07-06T01:30:32;101443.89;;;11.99;100.00
46127;BME280;31859;55.030;-1.550;2022-07-06T01:32:59;101447.66;;;11.52;100.00
46127;BME280;31859;55.030;-1.550;2022-07-06T01:35:29;101444.20;;;11.12;100.00
46127;BME280;31859;55.030;-1.550;2022-07-06T01:37:58;101443.10;;;11.05;100.00
46127;BME280;31859;55.030;-1.550;2022-07-06T01:40:26;101444.09;;;11.03;100.00
46127;BME280;31859;55.030;-1.550;2022-07-06T01:42:53;101436.64;;;11.50;100.00
46127;BME280;31859;55.030;-1.550;2022-07-06T01:45:20;101433.35;;;11.30;100.00
46127;BME280;31859;55.030;-1.550;2022-07-06T01:47:48;101435.33;;;10.86;100.00
46127;BME280;31859;55.030;-1.550;2022-07-06T01:50:15;101428.67;;;11.17;100.00
46127;BME280;31859;55.030;-1.550;2022-07-06T01:52:42;101427.68;;;11.18;100.00
46127;BME280;31859;55.030;-1.550;2022-07-06T01:55:09;101423.66;;;10.91;100.00
46127;BME280;31859;55.030;-1.550;2022-07-06T01:57:37;101424.36;;;11.11;100.00
46127;BME280;31859;55.030;-1.550;2022-07-06T02:00:06;101426.73;;;11.12;100.00
46127;BME280;31859;55.030;-1.550;2022-07-06T02:02:34;101421.13;;;11.08;100.00
46127;BME280;31859;55.030;-1.550;2022-07-06T02:05:02;101424.96;;;10.96;100.00
46127;BME280;31859;55.030;-1.550;2022-07-06T02:07:29;101424.36;;;11.25;100.00
46127;BME280;31859;55.030;-1.550;2022-07-06T02:09:56;101427.19;;;11.03;100.00
46127;BME280;31859;55.030;-1.550;2022-07-06T02:12:23;101423.03;;;11.22;100.00
46127;BME280;31859;55.030;-1.550;2022-07-06T02:14:50;101420.44;;;11.08;100.00
46127;BME280;31859;55.030;-1.550;2022-07-06T02:17:17;101418.52;;;10.69;100.00
46127;BME280;31859;55.030;-1.550;2022-07-06T02:19:44;101411.81;;;10.60;100.00
46127;BME280;31859;55.030;-1.550;2022-07-06T02:22:11;101410.34;;;10.64;100.00
46127;BME280;31859;55.030;-1.550;2022-07-06T02:24:39;101405.06;;;10.98;100.00
46127;BME280;31859;55.030;-1.550;2022-07-06T02:27:05;101400.32;;;10.84;100.00
46127;BME280;31859;55.030;-1.550;2022-07-06T02:29:33;101397.14;;;10.78;100.00
46127;BME280;31859;55.030;-1.550;2022-07-06T02:32:00;101392.02;;;10.82;100.00
46127;BME280;31859;55.030;-1.550;2022-07-06T02:34:27;101391.76;;;11.03;100.00
46127;BME280;31859;55.030;-1.550;2022-07-06T02:36:54;101385.53;;;10.90;100.00
46127;BME280;31859;55.030;-1.550;2022-07-06T02:39:21;101387.78;;;11.16;100.00
46127;BME280;31859;55.030;-1.550;2022-07-06T02:41:48;101384.65;;;10.89;100.00
46127;BME280;31859;55.030;-1.550;2022-07-06T02:44:15;101385.88;;;11.17;100.00
46127;BME280;31859;55.030;-1.550;2022-07-06T02:46:42;101388.36;;;11.10;100.00
46127;BME280;31859;55.030;-1.550;2022-07-06T02:49:10;101389.09;;;10.79;100.00
46127;BME280;31859;55.030;-1.550;2022-07-06T02:51:37;101386.99;;;10.94;100.00
46127;BME280;31859;55.030;-1.550;2022-07-06T02:54:04;101380.53;;;10.93;100.00
46127;BME280;31859;55.030;-1.550;2022-07-06T02:56:32;101374.56;;;10.44;100.00
46127;BME280;31859;55.030;-1.550;2022-07-06T02:58:59;101371.24;;;10.70;100.00
46127;BME280;31859;55.030;-1.550;2022-07-06T03:01:26;101364.45;;;10.69;100.00
46127;BME280;31859;55.030;-1.550;2022-07-06T03:03:53;101361.20;;;11.23;100.00
46127;BME280;31859;55.030;-1.550;2022-07-06T03:06:21;101357.40;;;10.68;100.00
46127;BME280;31859;55.030;-1.550;2022-07-06T03:08:48;101353.86;;;10.92;100.00
46127;BME280;31859;55.030;-1.550;2022-07-06T03:11:15;101346.02;;;10.86;100.00
46127;BME280;31859;55.030;-1.550;2022-07-06T03:13:42;101343.11;;;11.24;100.00
46127;BME280;31859;55.030;-1.550;2022-07-06T03:16:09;101339.70;;;11.18;100.00
46127;BME280;31859;55.030;-1.550;2022-07-06T03:18:36;101336.33;;;11.16;100.00
46127;BME280;31859;55.030;-1.550;2022-07-06T03:21:03;101336.07;;;11.33;100.00
46127;BME280;31859;55.030;-1.550;2022-07-06T03:23:30;101339.82;;;10.78;100.00
46127;BME280;31859;55.030;-1.550;2022-07-06T03:25:57;101336.89;;;11.06;100.00
46127;BME280;31859;55.030;-1.550;2022-07-06T03:28:25;101342.90;;;10.81;100.00
46127;BME280;31859;55.030;-1.550;2022-07-06T03:30:52;101343.18;;;10.87;100.00
46127;BME280;31859;55.030;-1.550;2022-07-06T03:33:19;101353.36;;;10.85;100.00
46127;BME280;31859;55.030;-1.550;2022-07-06T03:35:46;101355.87;;;10.57;100.00
46127;BME280;31859;55.030;-1.550;2022-07-06T03:38:13;101359.52;;;10.54;100.00
46127;BME280;31859;55.030;-1.550;2022-07-06T03:40:40;101358.34;;;10.67;100.00
46127;BME280;31859;55.030;-1.550;2022-07-06T03:43:08;101356.86;;;10.80;100.00
46127;BME280;31859;55.030;-1.550;2022-07-06T03:45:35;101353.53;;;11.17;100.00
46127;BME280;31859;55.030;-1.550;2022-07-06T03:48:02;101352.84;;;11.00;100.00
46127;BME280;31859;55.030;-1.550;2022-07-06T03:50:29;101347.37;;;11.08;100.00
46127;BME280;31859;55.030;-1.550;2022-07-06T03:52:57;101346.69;;;10.71;100.00
46127;BME280;31859;55.030;-1.550;2022-07-06T03:55:24;101351.14;;;10.91;100.00
46127;BME280;31859;55.030;-1.550;2022-07-06T03:57:51;101352.03;;;11.36;100.00
46127;BME280;31859;55.030;-1.550;2022-07-06T04:00:18;101348.96;;;10.82;100.00
46127;BME280;31859;55.030;-1.550;2022-07-06T04:02:45;101343.96;;;10.67;100.00
46127;BME280;31859;55.030;-1.550;2022-07-06T04:05:12;101347.80;;;11.29;100.00
46127;BME280;31859;55.030;-1.550;2022-07-06T04:07:40;101344.55;;;11.58;100.00
46127;BME280;31859;55.030;-1.550;2022-07-06T04:10:08;101346.63;;;10.85;100.00
46127;BME280;31859;55.030;-1.550;2022-07-06T04:12:40;101343.71;;;10.84;100.00
46127;BME280;31859;55.030;-1.550;2022-07-06T04:15:07;101345.06;;;10.86;100.00
46127;BME280;31859;55.030;-1.550;2022-07-06T04:17:34;101345.33;;;10.99;100.00
46127;BME280;31859;55.030;-1.550;2022-07-06T04:20:02;101347.78;;;10.99;100.00
46127;BME280;31859;55.030;-1.550;2022-07-06T04:22:29;101349.22;;;11.33;100.00
46127;BME280;31859;55.030;-1.550;2022-07-06T04:24:56;101344.45;;;11.18;100.00
46127;BME280;31859;55.030;-1.550;2022-07-06T04:27:24;101348.38;;;10.96;100.00
46127;BME280;31859;55.030;-1.550;2022-07-06T04:29:53;101356.03;;;10.99;100.00
46127;BME280;31859;55.030;-1.550;2022-07-06T04:32:20;101356.90;;;11.47;100.00
46127;BME280;31859;55.030;-1.550;2022-07-06T04:34:48;101351.79;;;11.51;100.00
46127;BME280;31859;55.030;-1.550;2022-07-06T04:37:15;101350.45;;;11.60;100.00
46127;BME280;31859;55.030;-1.550;2022-07-06T04:39:42;101346.94;;;11.55;100.00
46127;BME280;31859;55.030;-1.550;2022-07-06T04:42:09;101347.18;;;11.54;100.00
46127;BME280;31859;55.030;-1.550;2022-07-06T04:44:36;101353.22;;;11.47;100.00
46127;BME280;31859;55.030;-1.550;2022-07-06T04:47:04;101352.57;;;11.63;100.00
46127;BME280;31859;55.030;-1.550;2022-07-06T04:49:31;101356.36;;;11.28;100.00
46127;BME280;31859;55.030;-1.550;2022-07-06T04:51:58;101360.97;;;11.16;100.00
46127;BME280;31859;55.030;-1.550;2022-07-06T04:54:25;101351.66;;;11.86;100.00
46127;BME280;31859;55.030;-1.550;2022-07-06T04:56:52;101351.58;;;11.78;100.00
46127;BME280;31859;55.030;-1.550;2022-07-06T04:59:19;101345.20;;;11.44;100.00
46127;BME280;31859;55.030;-1.550;2022-07-06T05:01:46;101344.12;;;11.55;100.00
46127;BME280;31859;55.030;-1.550;2022-07-06T05:04:13;101342.57;;;11.78;100.00
46127;BME280;31859;55.030;-1.550;2022-07-06T05:06:40;101344.13;;;11.40;100.00
46127;BME280;31859;55.030;-1.550;2022-07-06T05:09:07;101343.29;;;11.51;100.00
46127;BME280;31859;55.030;-1.550;2022-07-06T05:11:34;101338.77;;;11.51;100.00
46127;BME280;31859;55.030;-1.550;2022-07-06T05:14:02;101342.95;;;11.36;100.00
46127;BME280;31859;55.030;-1.550;2022-07-06T05:16:28;101347.29;;;11.20;100.00
46127;BME280;31859;55.030;-1.550;2022-07-06T05:18:56;101364.26;;;11.37;100.00
46127;BME280;31859;55.030;-1.550;2022-07-06T05:21:23;101369.37;;;10.81;100.00
46127;BME280;31859;55.030;-1.550;2022-07-06T05:23:51;101369.73;;;10.61;100.00
46127;BME280;31859;55.030;-1.550;2022-07-06T05:26:18;101369.20;;;11.05;100.00
46127;BME280;31859;55.030;-1.550;2022-07-06T05:28:45;101355.89;;;10.96;100.00
46127;BME280;31859;55.030;-1.550;2022-07-06T05:31:12;101360.45;;;11.41;100.00
46127;BME280;31859;55.030;-1.550;2022-07-06T05:33:39;101370.19;;;11.09;100.00
46127;BME280;31859;55.030;-1.550;2022-07-06T05:36:06;101362.75;;;11.37;100.00
46127;BME280;31859;55.030;-1.550;2022-07-06T05:38:35;101366.15;;;11.83;100.00
46127;BME280;31859;55.030;-1.550;2022-07-06T05:41:02;101368.82;;;11.47;100.00
46127;BME280;31859;55.030;-1.550;2022-07-06T05:43:29;101371.80;;;11.40;100.00
46127;BME280;31859;55.030;-1.550;2022-07-06T05:45:56;101380.16;;;11.15;100.00
46127;BME280;31859;55.030;-1.550;2022-07-06T05:48:23;101381.71;;;11.45;100.00
46127;BME280;31859;55.030;-1.550;2022-07-06T05:50:50;101369.10;;;11.48;100.00
46127;BME280;31859;55.030;-1.550;2022-07-06T05:53:17;101365.42;;;12.21;100.00
46127;BME280;31859;55.030;-1.550;2022-07-06T05:55:44;101353.78;;;12.13;100.00
46127;BME280;31859;55.030;-1.550;2022-07-06T05:58:11;101345.22;;;12.08;100.00
46127;BME280;31859;55.030;-1.550;2022-07-06T06:00:38;101349.79;;;11.78;100.00
46127;BME280;31859;55.030;-1.550;2022-07-06T06:03:05;101349.53;;;12.43;100.00
46127;BME280;31859;55.030;-1.550;2022-07-06T06:05:33;101341.07;;;11.98;100.00
46127;BME280;31859;55.030;-1.550;2022-07-06T06:08:00;101343.55;;;12.50;100.00
46127;BME280;31859;55.030;-1.550;2022-07-06T06:10:28;101342.10;;;11.82;100.00
46127;BME280;31859;55.030;-1.550;2022-07-06T06:12:55;101340.38;;;12.10;100.00
46127;BME280;31859;55.030;-1.550;2022-07-06T06:15:22;101335.66;;;11.81;100.00
46127;BME280;31859;55.030;-1.550;2022-07-06T06:17:49;101332.51;;;11.90;100.00
46127;BME280;31859;55.030;-1.550;2022-07-06T06:20:16;101334.91;;;12.41;100.00
46127;BME280;31859;55.030;-1.550;2022-07-06T06:22:46;101337.85;;;12.28;100.00
46127;BME280;31859;55.030;-1.550;2022-07-06T06:25:13;101339.46;;;12.59;100.00
46127;BME280;31859;55.030;-1.550;2022-07-06T06:27:40;101339.71;;;12.59;100.00
46127;BME280;31859;55.030;-1.550;2022-07-06T06:30:09;101338.68;;;12.75;100.00
46127;BME280;31859;55.030;-1.550;2022-07-06T06:32:36;101334.86;;;12.27;100.00
46127;BME280;31859;55.030;-1.550;2022-07-06T06:35:04;101339.78;;;12.69;100.00
46127;BME280;31859;55.030;-1.550;2022-07-06T06:37:31;101336.36;;;12.47;100.00
46127;BME280;31859;55.030;-1.550;2022-07-06T06:39:59;101326.56;;;12.54;100.00
46127;BME280;31859;55.030;-1.550;2022-07-06T06:42:25;101320.96;;;12.63;100.00
46127;BME280;31859;55.030;-1.550;2022-07-06T06:44:52;101326.87;;;12.26;100.00
46127;BME280;31859;55.030;-1.550;2022-07-06T06:47:19;101327.22;;;11.99;100.00
46127;BME280;31859;55.030;-1.550;2022-07-06T06:49:46;101328.24;;;11.94;100.00
46127;BME280;31859;55.030;-1.550;2022-07-06T06:52:13;101328.69;;;12.39;100.00
46127;BME280;31859;55.030;-1.550;2022-07-06T06:54:41;101338.02;;;12.41;100.00
46127;BME280;31859;55.030;-1.550;2022-07-06T06:57:08;101337.77;;;12.39;100.00
46127;BME280;31859;55.030;-1.550;2022-07-06T06:59:36;101338.11;;;11.99;100.00
46127;BME280;31859;55.030;-1.550;2022-07-06T07:02:03;101335.96;;;12.17;100.00
46127;BME280;31859;55.030;-1.550;2022-07-06T07:04:30;101338.05;;;11.87;100.00
46127;BME280;31859;55.030;-1.550;2022-07-06T07:06:57;101327.65;;;11.38;100.00
46127;BME280;31859;55.030;-1.550;2022-07-06T07:09:25;101335.32;;;11.95;100.00
46127;BME280;31859;55.030;-1.550;2022-07-06T07:11:51;101331.73;;;12.00;100.00
46127;BME280;31859;55.030;-1.550;2022-07-06T07:14:19;101335.13;;;11.59;100.00
46127;BME280;31859;55.030;-1.550;2022-07-06T07:16:46;101334.61;;;11.88;100.00
46127;BME280;31859;55.030;-1.550;2022-07-06T07:19:13;101341.58;;;11.52;100.00
46127;BME280;31859;55.030;-1.550;2022-07-06T07:21:40;101332.78;;;12.12;100.00
46127;BME280;31859;55.030;-1.550;2022-07-06T07:24:07;101329.03;;;11.66;100.00
46127;BME280;31859;55.030;-1.550;2022-07-06T07:26:35;101321.03;;;12.04;100.00
46127;BME280;31859;55.030;-1.550;2022-07-06T07:29:01;101322.71;;;11.94;100.00
46127;BME280;31859;55.030;-1.550;2022-07-06T07:31:28;101312.37;;;11.92;100.00
46127;BME280;31859;55.030;-1.550;2022-07-06T07:33:55;101311.81;;;12.06;100.00
46127;BME280;31859;55.030;-1.550;2022-07-06T07:36:23;101313.01;;;12.25;100.00
46127;BME280;31859;55.030;-1.550;2022-07-06T07:38:50;101314.77;;;12.44;100.00
46127;BME280;31859;55.030;-1.550;2022-07-06T07:41:18;101307.64;;;12.37;100.00
46127;BME280;31859;55.030;-1.550;2022-07-06T07:43:45;101303.64;;;12.74;100.00
46127;BME280;31859;55.030;-1.550;2022-07-06T07:46:12;101305.52;;;12.36;100.00
46127;BME280;31859;55.030;-1.550;2022-07-06T07:48:39;101310.11;;;12.48;100.00
46127;BME280;31859;55.030;-1.550;2022-07-06T07:51:06;101322.00;;;12.78;100.00
46127;BME280;31859;55.030;-1.550;2022-07-06T07:53:34;101318.22;;;12.48;100.00
46127;BME280;31859;55.030;-1.550;2022-07-06T07:56:01;101318.89;;;12.62;100.00
46127;BME280;31859;55.030;-1.550;2022-07-06T07:58:28;101323.09;;;12.37;100.00
46127;BME280;31859;55.030;-1.550;2022-07-06T08:00:55;101321.66;;;12.75;100.00
46127;BME280;31859;55.030;-1.550;2022-07-06T08:03:22;101322.84;;;12.30;100.00
46127;BME280;31859;55.030;-1.550;2022-07-06T08:05:49;101323.83;;;12.62;100.00
46127;BME280;31859;55.030;-1.550;2022-07-06T08:08:16;101330.79;;;12.98;100.00
46127;BME280;31859;55.030;-1.550;2022-07-06T08:10:43;101331.70;;;12.65;100.00
46127;BME280;31859;55.030;-1.550;2022-07-06T08:13:11;101334.83;;;12.63;100.00
46127;BME280;31859;55.030;-1.550;2022-07-06T08:15:39;101329.16;;;12.44;100.00
46127;BME280;31859;55.030;-1.550;2022-07-06T08:18:05;101335.14;;;12.19;100.00
46127;BME280;31859;55.030;-1.550;2022-07-06T08:20:32;101335.45;;;12.74;100.00
46127;BME280;31859;55.030;-1.550;2022-07-06T08:22:59;101324.92;;;12.49;100.00
46127;BME280;31859;55.030;-1.550;2022-07-06T08:25:26;101326.16;;;12.50;100.00
46127;BME280;31859;55.030;-1.550;2022-07-06T08:27:53;101326.31;;;12.51;100.00
46127;BME280;31859;55.030;-1.550;2022-07-06T08:30:20;101326.68;;;12.37;100.00
46127;BME280;31859;55.030;-1.550;2022-07-06T08:32:47;101327.02;;;12.45;100.00
46127;BME280;31859;55.030;-1.550;2022-07-06T08:35:15;101317.24;;;12.93;100.00
46127;BME280;31859;55.030;-1.550;2022-07-06T08:37:42;101311.00;;;13.26;100.00
46127;BME280;31859;55.030;-1.550;2022-07-06T08:40:10;101310.14;;;13.26;100.00
46127;BME280;31859;55.030;-1.550;2022-07-06T08:42:37;101313.59;;;13.36;100.00
46127;BME280;31859;55.030;-1.550;2022-07-06T08:45:06;101319.98;;;13.50;100.00
46127;BME280;31859;55.030;-1.550;2022-07-06T08:47:35;101320.20;;;13.86;100.00
46127;BME280;31859;55.030;-1.550;2022-07-06T08:50:04;101322.70;;;14.29;100.00
46127;BME280;31859;55.030;-1.550;2022-07-06T08:52:32;101334.54;;;12.75;100.00
46127;BME280;31859;55.030;-1.550;2022-07-06T08:54:59;101340.07;;;12.88;100.00
46127;BME280;31859;55.030;-1.550;2022-07-06T08:57:27;101338.25;;;12.84;100.00
46127;BME280;31859;55.030;-1.550;2022-07-06T08:59:54;101344.05;;;13.17;100.00
46127;BME280;31859;55.030;-1.550;2022-07-06T09:02:24;101337.93;;;13.25;100.00
46127;BME280;31859;55.030;-1.550;2022-07-06T09:04:54;101325.31;;;13.46;100.00
46127;BME280;31859;55.030;-1.550;2022-07-06T09:07:22;101316.61;;;12.69;100.00
46127;BME280;31859;55.030;-1.550;2022-07-06T09:09:50;101319.50;;;12.45;100.00
46127;BME280;31859;55.030;-1.550;2022-07-06T09:12:18;101333.56;;;12.75;100.00
46127;BME280;31859;55.030;-1.550;2022-07-06T09:14:45;101321.92;;;12.86;100.00
46127;BME280;31859;55.030;-1.550;2022-07-06T09:17:13;101322.29;;;13.04;100.00
46127;BME280;31859;55.030;-1.550;2022-07-06T09:19:40;101321.10;;;13.26;100.00
46127;BME280;31859;55.030;-1.550;2022-07-06T09:22:08;101313.32;;;13.02;100.00
46127;BME280;31859;55.030;-1.550;2022-07-06T09:24:41;101308.15;;;12.52;100.00
46127;BME280;31859;55.030;-1.550;2022-07-06T09:27:16;101314.20;;;12.35;100.00
46127;BME280;31859;55.030;-1.550;2022-07-06T09:29:45;101311.38;;;12.62;100.00
46127;BME280;31859;55.030;-1.550;2022-07-06T09:32:12;101315.21;;;12.78;100.00
46127;BME280;31859;55.030;-1.550;2022-07-06T09:34:41;101314.69;;;12.22;100.00
46127;BME280;31859;55.030;-1.550;2022-07-06T09:37:09;101312.15;;;12.30;100.00
46127;BME280;31859;55.030;-1.550;2022-07-06T09:39:36;101299.13;;;12.15;100.00
46127;BME280;31859;55.030;-1.550;2022-07-06T09:42:05;101308.31;;;12.25;100.00
46127;BME280;31859;55.030;-1.550;2022-07-06T09:44:34;101307.19;;;12.26;100.00
46127;BME280;31859;55.030;-1.550;2022-07-06T09:47:04;101304.26;;;12.26;100.00
46127;BME280;31859;55.030;-1.550;2022-07-06T09:49:32;101304.68;;;12.12;100.00
46127;BME280;31859;55.030;-1.550;2022-07-06T09:52:01;101304.27;;;11.76;100.00
46127;BME280;31859;55.030;-1.550;2022-07-06T09:54:28;101297.03;;;12.20;100.00
46127;BME280;31859;55.030;-1.550;2022-07-06T09:56:56;101292.64;;;12.32;100.00
46127;BME280;31859;55.030;-1.550;2022-07-06T09:59:25;101281.44;;;12.48;100.00
46127;BME280;31859;55.030;-1.550;2022-07-06T10:01:54;101281.84;;;12.13;100.00
46127;BME280;31859;55.030;-1.550;2022-07-06T10:04:21;101280.37;;;12.26;100.00
46127;BME280;31859;55.030;-1.550;2022-07-06T10:06:49;101278.25;;;12.15;100.00
46127;BME280;31859;55.030;-1.550;2022-07-06T10:09:19;101284.59;;;12.19;100.00
46127;BME280;31859;55.030;-1.550;2022-07-06T10:11:49;101286.29;;;11.92;100.00
46127;BME280;31859;55.030;-1.550;2022-07-06T10:14:20;101290.34;;;12.28;100.00
46127;BME280;31859;55.030;-1.550;2022-07-06T10:16:47;101284.85;;;12.95;100.00
46127;BME280;31859;55.030;-1.550;2022-07-06T10:19:17;101270.18;;;12.49;100.00
46127;BME280;31859;55.030;-1.550;2022-07-06T10:21:45;101268.32;;;12.66;100.00
46127;BME280;31859;55.030;-1.550;2022-07-06T10:24:13;101265.29;;;12.50;100.00
46127;BME280;31859;55.030;-1.550;2022-07-06T10:26:41;101265.30;;;12.85;100.00
46127;BME280;31859;55.030;-1.550;2022-07-06T10:29:09;101260.27;;;12.95;100.00
46127;BME280;31859;55.030;-1.550;2022-07-06T10:31:39;101260.39;;;12.66;100.00
46127;BME280;31859;55.030;-1.550;2022-07-06T10:34:10;101252.48;;;12.93;100.00
46127;BME280;31859;55.030;-1.550;2022-07-06T10:36:39;101238.00;;;12.62;100.00
46127;BME280;31859;55.030;-1.550;2022-07-06T10:39:08;101255.29;;;13.07;100.00
46127;BME280;31859;55.030;-1.550;2022-07-06T10:41:35;101246.67;;;13.48;100.00
46127;BME280;31859;55.030;-1.550;2022-07-06T10:44:15;101249.03;;;13.52;100.00
46127;BME280;31859;55.030;-1.550;2022-07-06T10:46:50;101248.38;;;13.80;100.00
46127;BME280;31859;55.030;-1.550;2022-07-06T10:49:17;101239.05;;;13.55;100.00
46127;BME280;31859;55.030;-1.550;2022-07-06T10:51:45;101232.96;;;13.67;100.00
46127;BME280;31859;55.030;-1.550;2022-07-06T10:54:13;101221.63;;;13.81;100.00
46127;BME280;31859;55.030;-1.550;2022-07-06T10:56:43;101215.03;;;13.50;100.00
46127;BME280;31859;55.030;-1.550;2022-07-06T10:59:11;101218.14;;;13.77;100.00
46127;BME280;31859;55.030;-1.550;2022-07-06T11:01:38;101206.96;;;13.56;100.00
46127;BME280;31859;55.030;-1.550;2022-07-06T11:04:07;101208.59;;;13.78;100.00
46127;BME280;31859;55.030;-1.550;2022-07-06T11:06:36;101222.84;;;14.06;100.00
46127;BME280;31859;55.030;-1.550;2022-07-06T11:09:05;101227.74;;;14.18;100.00
46127;BME280;31859;55.030;-1.550;2022-07-06T11:11:42;101233.64;;;14.25;100.00
46127;BME280;31859;55.030;-1.550;2022-07-06T11:14:11;101218.93;;;14.24;100.00
46127;BME280;31859;55.030;-1.550;2022-07-06T11:19:25;101205.38;;;14.74;100.00
46127;BME280;31859;55.030;-1.550;2022-07-06T11:21:54;101197.17;;;14.52;100.00
46127;BME280;31859;55.030;-1.550;2022-07-06T11:24:22;101192.81;;;14.55;100.00
46127;BME280;31859;55.030;-1.550;2022-07-06T11:26:52;101178.94;;;15.40;100.00
46127;BME280;31859;55.030;-1.550;2022-07-06T11:29:21;101168.85;;;15.37;100.00
46127;BME280;31859;55.030;-1.550;2022-07-06T11:31:51;101173.10;;;14.91;100.00
46127;BME280;31859;55.030;-1.550;2022-07-06T11:34:20;101166.92;;;14.70;100.00
46127;BME280;31859;55.030;-1.550;2022-07-06T11:36:49;101159.42;;;15.09;100.00
46127;BME280;31859;55.030;-1.550;2022-07-06T11:39:16;101154.64;;;15.22;100.00
46127;BME280;31859;55.030;-1.550;2022-07-06T11:41:43;101165.64;;;15.32;100.00
46127;BME280;31859;55.030;-1.550;2022-07-06T11:44:10;101174.44;;;15.43;100.00
46127;BME280;31859;55.030;-1.550;2022-07-06T11:46:37;101169.18;;;15.26;100.00
46127;BME280;31859;55.030;-1.550;2022-07-06T11:49:06;101169.64;;;14.98;100.00
46127;BME280;31859;55.030;-1.550;2022-07-06T11:51:34;101169.55;;;14.99;100.00
46127;BME280;31859;55.030;-1.550;2022-07-06T11:54:08;101173.27;;;14.69;100.00
46127;BME280;31859;55.030;-1.550;2022-07-06T11:56:36;101180.43;;;15.41;100.00
46127;BME280;31859;55.030;-1.550;2022-07-06T11:59:04;101183.24;;;14.72;100.00
46127;BME280;31859;55.030;-1.550;2022-07-06T12:01:31;101182.00;;;14.78;100.00
46127;BME280;31859;55.030;-1.550;2022-07-06T12:04:00;101185.85;;;14.66;100.00
46127;BME280;31859;55.030;-1.550;2022-07-06T12:06:27;101177.71;;;14.63;100.00
46127;BME280;31859;55.030;-1.550;2022-07-06T12:08:57;101191.73;;;14.80;100.00
46127;BME280;31859;55.030;-1.550;2022-07-06T12:11:26;101194.94;;;14.98;100.00
46127;BME280;31859;55.030;-1.550;2022-07-06T12:13:56;101204.49;;;14.73;100.00
46127;BME280;31859;55.030;-1.550;2022-07-06T12:16:30;101201.96;;;14.38;100.00
46127;BME280;31859;55.030;-1.550;2022-07-06T12:18:57;101201.65;;;14.56;100.00
46127;BME280;31859;55.030;-1.550;2022-07-06T12:21:25;101177.54;;;14.48;100.00
46127;BME280;31859;55.030;-1.550;2022-07-06T12:23:53;101193.67;;;14.83;100.00
46127;BME280;31859;55.030;-1.550;2022-07-06T12:26:23;101193.34;;;14.47;100.00
46127;BME280;31859;55.030;-1.550;2022-07-06T12:28:59;101175.82;;;15.18;100.00
46127;BME280;31859;55.030;-1.550;2022-07-06T12:31:35;101176.27;;;15.21;100.00
46127;BME280;31859;55.030;-1.550;2022-07-06T12:34:03;101163.03;;;14.60;100.00
46127;BME280;31859;55.030;-1.550;2022-07-06T12:36:30;101180.89;;;14.85;100.00